Keene, North Dakota
Current Conditions -  °F | °C
As of 3:55 AM on Saturday 25 Oct 2014 (Local Time) from KD60 Reporting Station
Clear Clear  
Wind Chill: 32°   Ceiling: Unl
Heat Index: 32°   Visibility: 10mi
Dew Point: 32°   Wind: 3mph
Humidity: 100%   Direction: 250°WSW
Pressure: 30.11"   Gusts: NA
Location:  47.93°N, 102.94°W
Report Text: KD60 250855Z AUTO 25003KT 10SM CLR 00/00 A3011 RMK AO2
Loading
Personal Weather Stations






























Interactive Weather Map
Tropical Storm Tracking
New forecast layout! Learn more

10-Day Weather Forecast

Advertisements
Track Severe Weather on mobile